AirNav   Air Wisconsin Up To $57,000 Bonus
 
 1396 users online  

KRWN Arens Field Airport
Winamac, Indiana, USA

GOING TO WINAMAC?


FAA INFORMATION EFFECTIVE 25 FEBRUARY 2021

Location

FAA Identifier: RWN
Lat/Long: 41-05-32.1470N 086-36-46.3360W
41-05.535783N 086-36.772267W
41.0922631,-86.6128711
(estimated)
Elevation: 708.3 ft. / 215.9 m (surveyed)
Variation: 03W (2000)
From city: 3 miles N of WINAMAC, IN
Time zone: UTC -5 (UTC -4 during Daylight Saving Time)
Zip code: 46996

Airport Operations

Airport use: Open to the public
Activation date: 08/1969
Control tower: no
ARTCC: CHICAGO CENTER
FSS: TERRE HAUTE FLIGHT SERVICE STATION
NOTAMs facility: HUF (NOTAM-D service available)
Attendance: MON-SAT 0900-1700
Wind indicator: lighted
Segmented circle: no
Lights: ACTVT REIL RWY 09 & 27; MIRL RWY 09/27 - CTAF.

Airport Communications

CTAF/UNICOM: 122.8
SOUTH BEND APPROACH: 132.05
SOUTH BEND DEPARTURE: 132.05
WX AWOS-3 at OXI (14 nm N): 135.775 (574-772-2041)
WX AWOS-3 at RCR (20 nm E): 118.775 (574-223-3560)
  • APCH/DEP SVC PRVDD BY CHICAGO ARTCC ON FREQS 119.85/362.3 (FORT WAYNE RCAG); WHEN SOUTH BEND APCH CTL CLSD.

Nearby radio navigation aids

VOR radial/distance  VOR name  Freq  Var
OXIr173/13.9KNOX VOR/DME115.6000E
GUSr324/34.0GRISSOM VORTAC108.4502W
GSHr225/37.0GOSHEN VORTAC113.7000E
BVTr032/38.3BOILER VORTAC115.1001E

Airport Services

Fuel available: 100LL JET-A
SELF SERVICE.
Parking: hangars and tiedowns
Airframe service: NONE
Powerplant service: NONE
Bottled oxygen: NONE
Bulk oxygen: NONE

Runway Information

Runway 9/27

Dimensions: 4201 x 75 ft. / 1280 x 23 m
300 FT STWY ON WEST END.
Surface: asphalt/grooved, in good condition
Weight bearing capacity: 
Single wheel: EST SINGLE WHEEL PAVEMENT STRENGTH 12000 LBS.
Runway edge lights: medium intensity
RUNWAY 9  RUNWAY 27
Latitude: 41-05.536993N41-05.534467N
Longitude: 086-37.229102W086-36.314678W
Elevation: 705.6 ft.706.7 ft.
Traffic pattern: leftleft
Runway heading: 093 magnetic, 090 true273 magnetic, 270 true
Displaced threshold: no560 ft.
Markings: nonprecision, in good conditionnonprecision, in good condition
Visual slope indicator: 2-light PAPI on left (3.00 degrees glide path)2-light PAPI on left (4.25 degrees glide path)
Runway end identifier lights: yes
REIL OTS INDEFLY.
yes
Touchdown point: yes, no lightsyes, no lights
Obstructions: 10 ft. road, 430 ft. from runway, 23:1 slope to clear
4 FT FENCE 200 FT N.
none

Airport Ownership and Management from official FAA records

Ownership: Publicly-owned
Owner: WINAMAC-PULASKI CO BOAC
2595N. US 35
WINAMAC, IN 46996
Phone 574-946-6785
Manager: JOHN BARBER
2595 N. US 35
WINAMAC, IN 46996
Phone 574-946-6785

Airport Operational Statistics

Aircraft based on the field: 10
Single engine airplanes: 10
    
Aircraft operations: avg 23/week *
67% local general aviation
33% transient general aviation
* for 12-month period ending 31 December 2017

Additional Remarks

FOR CD CTC CHICAGO ARTCC AT 630-906-8921.
(CONTACT TITLE) JIM MCDANIEL.

Instrument Procedures

NOTE: All procedures below are presented as PDF files. If you need a reader for these files, you should download the free Adobe Reader.

NOT FOR NAVIGATION. Please procure official charts for flight.
FAA instrument procedures published for use from 25 February 2021 at 0901Z to 25 March 2021 at 0900Z.

 
IAPs - Instrument Approach Procedures
RNAV (GPS) RWY 09   download (228KB)
RNAV (GPS) RWY 27   download (230KB)
VOR/DME-A   download (172KB)
NOTE: Special Take-Off Minimums/Departure Procedures apply   download (331KB)

Other nearby airports with instrument procedures:

KOXI - Starke County Airport (14 nm N)
KRCR - Fulton County Airport (20 nm E)
C65 - Plymouth Municipal Airport (22 nm NE)
KMCX - White County Airport (24 nm S)
KGGP - Logansport/Cass County Airport (25 nm SE)
 
Loc | Ops | Rwys | IFR | FBO | Links
Com | Nav | Svcs | Stats | Notes
Area around KRWN (Arens Field Airport)
 
Road maps at: MapQuest Bing Google
 
Aerial photo
WARNING: Photo may not be current or correct
Aerial photo of KRWN (Arens Field Airport)
Do you have a better or more recent aerial photo of Arens Field Airport that you would like to share? If so, please send us your photo.

 
Sectional chart

 
Airport distance calculator
Flying to Arens Field Airport? Find the distance to fly.

From to KRWN

Sunrise and sunset
Times for 26-Feb-2021
 Local
(UTC-5)
 Zulu
(UTC)
Morning civil twilight06:5911:59
Sunrise07:2612:26
Sunset18:3223:32
Evening civil twilight19:0000:00

Current date and time
Zulu (UTC)  26-Feb-2021 20:15:08
Local (UTC-5)  26-Feb-2021 15:15:08
 
METAR
KOXI 
14nm N 
261955Z AUTO 13013KT 10SM CLR 04/M04 A3008 RMK AO1
KRCR 
20nm E 
261955Z AUTO 12009G15KT 10SM CLR 06/M04 A3010 RMK AO2
KC65 
22nm NE 
261955Z AUTO 13010G18KT 10SM CLR 04/M05 A3009 RMK A01
KMCX 
24nm S 
261955Z AUTO 10008KT 10SM BKN120 04/M04 A3008 RMK AO2 T00401036
KGGP 
25nm SE 
261955Z AUTO 11013KT 10SM BKN120 03/M01 A3008 RMK AO2
KRZL 
27nm W 
261955Z AUTO 11013KT 10SM BKN120 03/M02 A3006 RMK AO2
KVPZ 
28nm NW 
261956Z AUTO 11007KT 10SM FEW120 03/M03 A3007 RMK AO2 SLP194 T00281033
TAF
KGUS 
35nm SE 
261300Z 2613/2719 11007KT 9999 SCT200 QNH3015INS BECMG 2617/2618 15012G20KT 9999 SCT070 QNH2994INS BECMG 2702/2703 VRB06KT 9999 BKN012 QNH2991INS BECMG 2705/2706 VRB06KT 8000 -RA BR OVC005 QNH2984INS BECMG 2714/2715 VRB06KT 9000 BR BKN010 QNH2994INS BECMG 2717/2718 VRB06KT 9999 NSW BKN020 QNH2998INS TX09/2622Z TNM05/2613Z
NOTAMs
Click for the latest NOTAMs
NOTAMs are issued by the DoD/FAA and will open in a separate window not controlled by AirNav.

 

 
 

FBO, Fuel Providers, and Aircraft Ground Support

  
 Business Name 
 
 Contact 
 
 Services / Description 
 
Fuel Prices
 
Comments
  
Airport Management Service, Inc. 574-946-6785
no information available

If you are affiliated with Airport Management Service, Inc. and would like to show here your services, contact info, web link, logo, and more, click here
100LL Jet A
SS $3.62 $2.80 
 Updated 25-Feb-2021
 
   write
SS=Self service
Update Fuel Prices
 

Would you like to see your business listed on this page?

 If your business provides an interesting product or service to pilots, flight crews, aircraft, or users of the Arens Field Airport, you should consider listing it here.  To start the listing process, click on the button below
 
Add a business
 

Other Pages about Arens Field Airport

Update a link
 
Copyright © AirNav, LLC. All rights reserved. Privacy Policy  Contact